createdAt,value
2018-06-16T00:01:46.693Z,3.73
2018-06-16T00:04:15.316Z,6.93
2018-06-16T00:06:43.818Z,6.13
2018-06-16T00:09:12.331Z,6.23
2018-06-16T00:11:41.492Z,4.13
2018-06-16T00:14:10.999Z,7.40
2018-06-16T00:16:40.907Z,5.73
2018-06-16T00:19:10.392Z,4.77
2018-06-16T00:21:38.902Z,6.60
2018-06-16T00:24:07.398Z,8.30
2018-06-16T00:26:35.903Z,7.30
2018-06-16T00:29:04.374Z,3.60
2018-06-16T00:31:32.883Z,5.33
2018-06-16T00:34:01.359Z,7.67
2018-06-16T00:36:29.860Z,3.80
2018-06-16T00:38:58.373Z,19.43
2018-06-16T00:41:26.890Z,4.53
2018-06-16T00:43:55.354Z,2.87
2018-06-16T00:46:23.828Z,5.13
2018-06-16T00:48:52.306Z,5.20
2018-06-16T00:51:20.838Z,5.93
2018-06-16T00:53:49.330Z,2.67
2018-06-16T00:56:17.840Z,4.40
2018-06-16T00:58:46.347Z,10.33
2018-06-16T01:01:14.863Z,4.50
2018-06-16T01:03:43.335Z,3.50
2018-06-16T01:06:11.880Z,8.50
2018-06-16T01:08:40.461Z,8.07
2018-06-16T01:11:09.066Z,7.27
2018-06-16T01:13:37.545Z,4.53
2018-06-16T01:16:06.111Z,8.63
2018-06-16T01:18:34.593Z,2.53
2018-06-16T01:21:03.113Z,7.13
2018-06-16T01:23:31.598Z,4.97
2018-06-16T01:26:00.050Z,3.63
2018-06-16T01:28:28.608Z,5.07
2018-06-16T01:30:57.194Z,2.73
2018-06-16T01:33:25.779Z,8.80
2018-06-16T01:35:54.270Z,8.37
2018-06-16T01:38:22.808Z,7.37
2018-06-16T01:40:51.317Z,5.00
2018-06-16T01:43:19.779Z,5.13
2018-06-16T01:45:48.212Z,9.07
2018-06-16T01:48:16.689Z,3.70
2018-06-16T01:50:45.131Z,10.57
2018-06-16T01:53:13.575Z,3.70
2018-06-16T01:55:42.004Z,5.47
2018-06-16T01:58:10.158Z,3.40
2018-06-16T02:00:38.608Z,10.03
2018-06-16T02:03:07.068Z,3.90
2018-06-16T02:05:35.544Z,3.27
2018-06-16T02:08:04.007Z,4.73
2018-06-16T02:10:32.430Z,5.83
2018-06-16T02:13:00.834Z,5.30
2018-06-16T02:15:29.294Z,4.03
2018-06-16T02:17:57.718Z,9.40
2018-06-16T02:20:26.159Z,4.43
2018-06-16T02:22:54.603Z,3.30
2018-06-16T02:25:23.114Z,2.93
2018-06-16T02:27:51.572Z,3.20
2018-06-16T02:30:20.029Z,4.40
2018-06-16T02:32:48.774Z,4.77
2018-06-16T02:35:17.240Z,4.30
2018-06-16T02:37:45.647Z,7.23
2018-06-16T02:40:14.117Z,7.87
2018-06-16T02:42:42.555Z,5.50
2018-06-16T02:45:11.044Z,2.93
2018-06-16T02:47:39.479Z,5.63
2018-06-16T02:50:08.003Z,5.03
2018-06-16T02:52:36.426Z,6.07
2018-06-16T02:55:04.918Z,5.93
2018-06-16T02:57:33.353Z,7.40
2018-06-16T03:00:01.896Z,5.17
2018-06-16T03:02:30.310Z,3.07
2018-06-16T03:04:58.800Z,5.40
2018-06-16T03:07:28.110Z,5.53
2018-06-16T03:09:56.595Z,9.00
2018-06-16T03:12:25.032Z,8.07
2018-06-16T03:14:53.550Z,11.07
2018-06-16T03:17:21.987Z,5.80
2018-06-16T03:19:50.463Z,6.97
2018-06-16T03:22:18.888Z,7.03
2018-06-16T03:24:47.360Z,4.20
2018-06-16T03:27:15.831Z,7.57
2018-06-16T03:29:44.291Z,5.60
2018-06-16T03:32:12.794Z,6.63
2018-06-16T03:34:41.326Z,6.97
2018-06-16T03:37:09.766Z,5.63
2018-06-16T03:39:38.209Z,7.27
2018-06-16T03:42:06.686Z,9.50
2018-06-16T03:44:35.115Z,6.10
2018-06-16T03:47:03.623Z,6.27
2018-06-16T03:49:32.071Z,3.23
2018-06-16T03:52:00.653Z,4.60
2018-06-16T03:54:29.106Z,8.23
2018-06-16T03:56:57.572Z,6.63
2018-06-16T03:59:26.026Z,7.30
2018-06-16T04:01:54.502Z,7.83
2018-06-16T04:04:22.938Z,3.83
2018-06-16T04:06:51.472Z,9.97
2018-06-16T04:09:19.928Z,3.40
2018-06-16T04:11:48.354Z,11.63
2018-06-16T04:14:16.820Z,9.60
2018-06-16T04:16:45.310Z,6.00
2018-06-16T04:19:13.769Z,7.23
2018-06-16T04:21:42.254Z,6.30
2018-06-16T04:24:10.859Z,4.20
2018-06-16T04:26:39.364Z,5.00
2018-06-16T04:29:07.787Z,5.80
2018-06-16T04:31:36.243Z,6.57
2018-06-16T04:34:04.703Z,7.87
2018-06-16T04:36:33.172Z,5.83
2018-06-16T04:39:01.606Z,6.37
2018-06-16T04:41:30.100Z,8.07
2018-06-16T04:43:58.624Z,8.10
2018-06-16T04:46:27.066Z,7.87
2018-06-16T04:48:55.530Z,4.47
2018-06-16T04:51:24.063Z,7.57
2018-06-16T04:53:52.494Z,5.70
2018-06-16T04:56:20.978Z,4.30
2018-06-16T04:58:49.403Z,8.00
2018-06-16T05:01:17.871Z,6.67
2018-06-16T05:03:46.300Z,6.63
2018-06-16T05:06:14.806Z,10.00
2018-06-16T05:08:43.277Z,3.97
2018-06-16T05:11:11.762Z,4.17
2018-06-16T05:13:40.199Z,5.57
2018-06-16T05:16:08.682Z,8.03
2018-06-16T05:18:37.121Z,7.20
2018-06-16T05:21:05.658Z,4.50
2018-06-16T05:23:34.119Z,5.60
2018-06-16T05:26:02.585Z,6.13
2018-06-16T05:28:30.996Z,5.50
2018-06-16T05:30:59.626Z,5.70
2018-06-16T05:33:28.196Z,5.33
2018-06-16T05:35:56.673Z,9.83
2018-06-16T05:38:25.171Z,4.83
2018-06-16T05:40:53.585Z,7.63
2018-06-16T05:43:22.086Z,7.73
2018-06-16T05:45:50.519Z,10.20
2018-06-16T05:48:18.994Z,8.77
2018-06-16T05:50:47.448Z,7.87
2018-06-16T05:53:15.922Z,7.80
2018-06-16T05:55:44.439Z,7.97
2018-06-16T05:58:12.878Z,6.37
2018-06-16T06:00:41.353Z,11.93
2018-06-16T06:03:09.821Z,11.30
2018-06-16T06:05:38.281Z,7.30
2018-06-16T06:08:06.749Z,9.03
2018-06-16T06:10:35.276Z,6.13
2018-06-16T06:13:03.689Z,6.27
2018-06-16T06:15:32.137Z,5.03
2018-06-16T06:18:00.607Z,7.87
2018-06-16T06:20:29.048Z,6.23
2018-06-16T06:22:57.540Z,8.50
2018-06-16T06:25:26.134Z,8.47
2018-06-16T06:27:54.714Z,6.57
2018-06-16T06:30:23.160Z,7.70
2018-06-16T06:32:51.913Z,6.57
2018-06-16T06:35:20.382Z,10.00
2018-06-16T06:37:48.869Z,5.10
2018-06-16T06:40:17.404Z,7.53
2018-06-16T06:42:45.889Z,5.17
2018-06-16T06:45:14.331Z,6.47
2018-06-16T06:47:42.795Z,8.10
2018-06-16T06:50:11.294Z,5.87
2018-06-16T06:52:39.737Z,5.83
2018-06-16T06:55:08.190Z,6.00
2018-06-16T06:57:36.672Z,8.23
2018-06-16T07:00:05.172Z,7.00
2018-06-16T07:02:33.634Z,6.70
2018-06-16T07:05:02.197Z,6.03
2018-06-16T07:07:30.745Z,6.83
2018-06-16T07:09:59.286Z,10.53
2018-06-16T07:12:27.744Z,8.17
2018-06-16T07:14:56.236Z,9.93
2018-06-16T07:17:24.754Z,6.00
2018-06-16T07:19:53.379Z,6.13
2018-06-16T07:22:21.881Z,7.23
2018-06-16T07:24:50.455Z,5.57
2018-06-16T07:27:18.935Z,7.00
2018-06-16T07:29:47.697Z,8.27
2018-06-16T07:32:16.213Z,5.90
2018-06-16T07:34:44.806Z,8.07
2018-06-16T07:37:13.277Z,7.43
2018-06-16T07:39:41.767Z,8.03
2018-06-16T07:42:10.275Z,7.13
2018-06-16T07:44:38.856Z,6.43
2018-06-16T07:47:07.608Z,7.27
2018-06-16T07:49:36.168Z,6.83
2018-06-16T07:52:04.641Z,13.13
2018-06-16T07:54:33.129Z,15.87
2018-06-16T07:57:01.656Z,8.57
2018-06-16T07:59:30.086Z,8.10
2018-06-16T08:01:58.532Z,8.83
2018-06-16T08:04:27.025Z,8.30
2018-06-16T08:06:55.742Z,10.53
2018-06-16T08:09:24.242Z,6.27
2018-06-16T08:11:52.791Z,6.60
2018-06-16T08:14:21.236Z,6.93
2018-06-16T08:16:49.714Z,10.37
2018-06-16T08:19:18.186Z,10.67
2018-06-16T08:21:46.612Z,6.17
2018-06-16T08:24:15.078Z,11.40
2018-06-16T08:26:43.525Z,8.37
2018-06-16T08:29:12.149Z,5.97
2018-06-16T08:31:40.587Z,8.00
2018-06-16T08:34:09.212Z,5.70
2018-06-16T08:36:37.663Z,5.47
2018-06-16T08:39:08.399Z,6.10
2018-06-16T08:41:36.957Z,14.27
2018-06-16T08:44:05.475Z,5.53
2018-06-16T08:46:33.970Z,5.60
2018-06-16T08:49:02.473Z,6.50
2018-06-16T08:51:31.046Z,7.53
2018-06-16T08:53:59.547Z,4.97
2018-06-16T08:56:29.614Z,5.27
2018-06-16T08:58:59.099Z,5.77
2018-06-16T09:01:27.781Z,4.83
2018-06-16T09:03:56.627Z,7.00
2018-06-16T09:06:25.788Z,5.80
2018-06-16T09:08:54.429Z,7.87
2018-06-16T09:11:22.952Z,7.43
2018-06-16T09:13:52.493Z,5.90
2018-06-16T09:16:21.260Z,9.50
2018-06-16T09:24:21.395Z,7.00
2018-06-16T09:26:50.604Z,5.77
2018-06-16T09:29:19.442Z,8.57
2018-06-16T09:31:48.584Z,10.73
2018-06-16T09:34:19.369Z,9.13
2018-06-16T09:36:48.603Z,8.77
2018-06-16T09:39:17.378Z,6.23
2018-06-16T09:41:46.097Z,6.13
2018-06-16T09:44:14.709Z,6.53
2018-06-16T09:46:43.566Z,6.10
2018-06-16T09:49:12.217Z,7.00
2018-06-16T09:51:40.896Z,6.10
2018-06-16T09:54:09.584Z,5.30
2018-06-16T09:56:38.395Z,5.40
2018-06-16T09:59:07.181Z,5.43
2018-06-16T10:01:35.821Z,5.20
2018-06-16T10:04:04.464Z,5.10
2018-06-16T10:06:33.233Z,5.87
2018-06-16T10:09:02.121Z,5.47
2018-06-16T10:11:30.751Z,5.30
2018-06-16T10:14:02.164Z,5.67
2018-06-16T10:16:31.053Z,5.73
2018-06-16T10:18:59.885Z,5.33
2018-06-16T10:21:28.748Z,5.63
2018-06-16T10:23:57.633Z,5.40
2018-06-16T10:26:26.262Z,5.50
2018-06-16T10:28:54.979Z,5.10
2018-06-16T10:31:23.624Z,6.80
2018-06-16T10:33:52.321Z,7.53
2018-06-16T10:36:20.981Z,6.90
2018-06-16T10:38:49.690Z,6.90
2018-06-16T10:41:18.119Z,8.13
2018-06-16T10:43:46.588Z,8.20
2018-06-16T10:46:15.011Z,8.17
2018-06-16T10:48:43.478Z,7.10
2018-06-16T10:51:11.944Z,7.73
2018-06-16T10:53:40.365Z,8.63
2018-06-16T10:56:09.790Z,9.40
2018-06-16T10:58:38.457Z,8.33
2018-06-16T11:01:07.102Z,7.83
2018-06-16T11:03:36.292Z,7.67
2018-06-16T11:06:05.803Z,8.00
2018-06-16T11:08:34.638Z,8.53
2018-06-16T11:11:03.573Z,8.53
2018-06-16T11:13:32.746Z,8.23
2018-06-16T11:16:02.604Z,8.20
2018-06-16T11:18:31.869Z,8.87
2018-06-16T11:21:00.649Z,8.70
2018-06-16T11:23:29.315Z,8.97
2018-06-16T11:25:57.981Z,7.47
2018-06-16T11:28:26.743Z,9.27
2018-06-16T11:30:55.414Z,12.50
2018-06-16T11:33:24.143Z,9.97
2018-06-16T11:35:52.734Z,8.80
2018-06-16T11:38:21.366Z,7.93
2018-06-16T11:40:50.016Z,7.97
2018-06-16T11:43:25.289Z,8.60
2018-06-16T11:45:53.994Z,8.50
2018-06-16T11:48:22.756Z,8.83
2018-06-16T11:50:51.075Z,8.23
2018-06-16T11:53:19.742Z,7.63
2018-06-16T11:55:48.509Z,7.53
2018-06-16T11:58:17.215Z,6.90
2018-06-16T12:00:45.772Z,5.47
2018-06-16T12:03:14.515Z,4.93
2018-06-16T12:05:43.250Z,5.27
2018-06-16T12:08:12.171Z,5.37
2018-06-16T12:10:41.828Z,5.03
2018-06-16T12:13:10.643Z,4.60
2018-06-16T12:15:39.495Z,3.60
2018-06-16T12:18:08.449Z,3.80
2018-06-16T12:20:37.263Z,3.90
2018-06-16T12:23:06.109Z,3.90
2018-06-16T12:25:35.400Z,4.07
2018-06-16T12:28:05.051Z,4.17
2018-06-16T12:30:34.194Z,3.83
2018-06-16T12:33:03.031Z,4.10
2018-06-16T12:35:31.769Z,4.70
2018-06-16T12:38:00.716Z,4.70
2018-06-16T12:40:29.522Z,5.23
2018-06-16T12:42:58.181Z,6.03
2018-06-16T12:45:26.817Z,5.70
2018-06-16T12:47:56.484Z,8.00
2018-06-16T12:50:25.310Z,6.17
2018-06-16T12:52:53.950Z,6.47
2018-06-16T12:55:22.848Z,6.83
2018-06-16T12:57:51.547Z,6.20
2018-06-16T13:00:20.180Z,6.13
2018-06-16T13:02:48.984Z,6.57
2018-06-16T13:05:17.418Z,6.03
2018-06-16T13:07:45.990Z,8.80
2018-06-16T13:10:14.877Z,5.67
2018-06-16T13:12:43.582Z,7.83
2018-06-16T13:15:12.179Z,8.40
2018-06-16T13:17:41.850Z,4.27
2018-06-16T13:20:11.475Z,3.97
2018-06-16T13:22:42.881Z,4.27
2018-06-16T13:25:11.648Z,3.33
2018-06-16T13:27:43.320Z,3.07
2018-06-16T13:30:12.653Z,9.30
2018-06-16T13:32:41.362Z,3.00
2018-06-16T13:35:09.923Z,3.43
2018-06-16T13:37:39.885Z,4.87
2018-06-16T13:40:12.393Z,3.40
2018-06-16T13:42:41.019Z,6.03
2018-06-16T13:45:09.767Z,3.70
2018-06-16T13:47:39.348Z,3.93
2018-06-16T13:50:08.010Z,3.77
2018-06-16T13:52:36.696Z,6.53
2018-06-16T13:55:07.000Z,5.90
2018-06-16T13:57:35.753Z,4.87
2018-06-16T14:00:04.850Z,3.80
2018-06-16T14:02:33.399Z,6.83
2018-06-16T14:05:02.060Z,4.30
2018-06-16T14:07:30.641Z,5.67
2018-06-16T14:10:00.431Z,4.23
2018-06-16T14:12:29.045Z,3.93
2018-06-16T14:14:57.615Z,5.67
2018-06-16T14:17:26.122Z,4.13
2018-06-16T14:19:54.844Z,6.10
2018-06-16T14:22:23.461Z,3.87
2018-06-16T14:24:52.069Z,3.67
2018-06-16T14:27:20.629Z,3.67
2018-06-16T14:29:49.414Z,4.13
2018-06-16T14:32:17.962Z,5.23
2018-06-16T14:34:46.461Z,3.80
2018-06-16T14:37:15.248Z,3.70
2018-06-16T14:39:43.698Z,3.73
2018-06-16T14:42:12.256Z,6.00
2018-06-16T14:44:42.536Z,3.63
2018-06-16T14:47:11.417Z,4.33
2018-06-16T14:49:40.793Z,7.53
2018-06-16T14:52:09.338Z,5.07
2018-06-16T14:54:38.056Z,4.53
2018-06-16T14:57:06.662Z,4.07
2018-06-16T14:59:35.108Z,3.40
2018-06-16T15:02:03.931Z,3.60
2018-06-16T15:04:32.491Z,4.83
2018-06-16T15:07:01.091Z,3.90
2018-06-16T15:09:29.799Z,4.33
2018-06-16T15:11:58.287Z,5.43
2018-06-16T15:14:26.911Z,4.40
2018-06-16T15:16:55.445Z,3.37
2018-06-16T15:19:23.903Z,5.07
2018-06-16T15:21:52.352Z,6.90
2018-06-16T15:24:20.839Z,6.27
2018-06-16T15:26:49.574Z,3.67
2018-06-16T15:29:18.184Z,6.40
2018-06-16T15:31:47.429Z,4.83
2018-06-16T15:34:16.361Z,4.33
2018-06-16T15:36:45.050Z,4.00
2018-06-16T15:39:13.527Z,4.50
2018-06-16T15:41:42.232Z,6.20
2018-06-16T15:44:10.972Z,6.57
2018-06-16T15:46:39.600Z,8.20
2018-06-16T15:49:08.128Z,9.10
2018-06-16T15:51:36.734Z,5.90
2018-06-16T15:54:05.389Z,6.77
2018-06-16T15:56:37.311Z,4.37
2018-06-16T15:59:06.096Z,8.30
2018-06-16T16:01:34.661Z,3.73
2018-06-16T16:04:03.122Z,3.43
2018-06-16T16:06:31.633Z,5.23
2018-06-16T16:09:00.145Z,3.63
2018-06-16T16:11:28.583Z,5.90
2018-06-16T16:13:57.010Z,6.80
2018-06-16T16:16:25.452Z,7.13
2018-06-16T16:18:54.138Z,4.60
2018-06-16T16:21:22.571Z,3.93
2018-06-16T16:23:51.052Z,2.93
2018-06-16T16:26:19.495Z,5.47
2018-06-16T16:28:47.962Z,4.20
2018-06-16T16:31:16.420Z,2.80
2018-06-16T16:33:44.890Z,5.87
2018-06-16T16:36:13.483Z,4.47
2018-06-16T16:38:41.950Z,4.73
2018-06-16T16:41:10.435Z,7.70
2018-06-16T16:43:39.002Z,3.50
2018-06-16T16:46:07.185Z,6.00
2018-06-16T16:48:35.641Z,3.70
2018-06-16T16:51:04.100Z,4.10
2018-06-16T16:53:32.666Z,9.10
2018-06-16T16:56:01.107Z,3.97
2018-06-16T16:58:29.581Z,2.90
2018-06-16T17:00:59.345Z,3.10
2018-06-16T17:03:27.914Z,3.13
2018-06-16T17:05:56.460Z,3.13
2018-06-16T17:08:25.701Z,2.53
2018-06-16T17:10:54.338Z,9.03
2018-06-16T17:13:22.947Z,7.40
2018-06-16T17:15:51.591Z,6.23
2018-06-16T17:18:20.124Z,4.33
2018-06-16T17:20:50.370Z,5.10
2018-06-16T17:23:18.994Z,4.43
2018-06-16T17:25:47.522Z,2.60
2018-06-16T17:28:16.184Z,4.20
2018-06-16T17:30:44.734Z,5.10
2018-06-16T17:33:13.442Z,9.93
2018-06-16T17:35:42.162Z,6.13
2018-06-16T17:38:11.611Z,6.20
2018-06-16T17:40:40.235Z,2.63
2018-06-16T17:43:08.775Z,4.03
2018-06-16T17:45:37.465Z,2.47
2018-06-16T17:48:06.121Z,4.97
2018-06-16T17:50:34.803Z,4.10
2018-06-16T17:53:03.355Z,2.93
2018-06-16T17:55:32.453Z,2.83
2018-06-16T17:58:01.027Z,2.97
2018-06-16T18:00:30.695Z,5.00
2018-06-16T18:02:59.190Z,9.30
2018-06-16T18:05:27.803Z,9.40
2018-06-16T18:07:56.299Z,10.83
2018-06-16T18:10:24.955Z,11.60
2018-06-16T18:12:53.490Z,10.80
2018-06-16T18:15:22.055Z,9.23
2018-06-16T18:17:50.607Z,12.10
2018-06-16T18:20:19.097Z,14.10
2018-06-16T18:22:47.590Z,12.43
2018-06-16T18:25:16.054Z,15.10
2018-06-16T18:27:44.494Z,16.23
2018-06-16T18:30:14.637Z,18.23
2018-06-16T18:32:43.170Z,15.53
2018-06-16T18:35:11.950Z,12.40
2018-06-16T18:37:40.539Z,13.57
2018-06-16T18:40:09.271Z,17.67
2018-06-16T18:42:37.908Z,21.20
2018-06-16T18:45:06.503Z,25.03
2018-06-16T18:47:35.178Z,16.20
2018-06-16T18:50:03.969Z,18.80
2018-06-16T18:52:32.735Z,14.23
2018-06-16T18:55:01.345Z,19.60
2018-06-16T18:57:29.936Z,15.23
2018-06-16T18:59:58.491Z,16.83
2018-06-16T19:02:27.103Z,16.93
2018-06-16T19:04:56.638Z,14.93
2018-06-16T19:07:25.324Z,15.87
2018-06-16T19:09:53.938Z,14.97
2018-06-16T19:12:22.511Z,17.83
2018-06-16T19:14:51.049Z,13.00
2018-06-16T19:17:19.566Z,13.63
2018-06-16T19:19:48.379Z,17.10
2018-06-16T19:22:16.880Z,17.13
2018-06-16T19:24:45.330Z,17.90
2018-06-16T19:27:13.816Z,14.63
2018-06-16T19:29:42.289Z,16.70
2018-06-16T19:32:10.737Z,26.87
2018-06-16T19:34:39.240Z,17.37
2018-06-16T19:37:07.777Z,18.73
2018-06-16T19:39:36.264Z,14.73
2018-06-16T19:42:04.738Z,15.13
2018-06-16T19:44:33.257Z,19.23
2018-06-16T19:47:01.414Z,13.73
2018-06-16T19:49:29.899Z,13.33
2018-06-16T19:51:58.312Z,13.80
2018-06-16T19:54:26.771Z,15.53
2018-06-16T19:56:55.207Z,47.60
2018-06-16T19:59:23.634Z,18.73
2018-06-16T20:01:52.082Z,20.43
2018-06-16T20:04:20.541Z,9.33
2018-06-16T20:06:49.099Z,13.20
2018-06-16T20:09:17.551Z,11.53
2018-06-16T20:11:46.052Z,10.00
2018-06-16T20:14:14.526Z,11.63
2018-06-16T20:16:42.968Z,9.70
2018-06-16T20:19:11.451Z,16.23
2018-06-16T20:21:39.903Z,10.73
2018-06-16T20:24:08.488Z,14.50
2018-06-16T20:26:36.928Z,12.27
2018-06-16T20:29:05.390Z,15.30
2018-06-16T20:31:34.432Z,12.63
2018-06-16T20:34:03.120Z,17.23
2018-06-16T20:36:31.764Z,12.13
2018-06-16T20:39:00.471Z,13.70
2018-06-16T20:41:29.311Z,17.17
2018-06-16T20:43:57.889Z,11.67
2018-06-16T20:46:26.391Z,15.03
2018-06-16T20:48:55.227Z,11.63
2018-06-16T20:51:23.680Z,15.73
2018-06-16T20:53:52.157Z,13.50
2018-06-16T20:56:20.630Z,14.50
2018-06-16T20:58:49.149Z,11.53
2018-06-16T21:01:17.601Z,11.87
2018-06-16T21:03:46.134Z,11.43
2018-06-16T21:06:15.642Z,15.87
2018-06-16T21:08:45.060Z,12.53
2018-06-16T21:11:13.596Z,15.53
2018-06-16T21:13:42.190Z,12.17
2018-06-16T21:16:10.941Z,10.53
2018-06-16T21:18:39.377Z,11.47
2018-06-16T21:21:08.091Z,10.43
2018-06-16T21:23:36.276Z,10.37
2018-06-16T21:26:08.407Z,9.93
2018-06-16T21:28:38.128Z,10.77
2018-06-16T21:31:06.810Z,12.57
2018-06-16T21:33:35.496Z,11.37
2018-06-16T21:36:05.373Z,10.77
2018-06-16T21:38:34.220Z,14.43
2018-06-16T21:41:02.888Z,10.50
2018-06-16T21:43:31.536Z,11.20
2018-06-16T21:46:00.519Z,14.00
2018-06-16T21:48:29.135Z,10.37
2018-06-16T21:50:58.192Z,10.17
2018-06-16T21:53:26.753Z,10.30
2018-06-16T21:55:55.249Z,10.80
2018-06-16T21:58:23.728Z,10.70
2018-06-16T22:00:52.462Z,14.53
2018-06-16T22:03:24.763Z,10.07
2018-06-16T22:05:53.294Z,10.67
2018-06-16T22:08:27.623Z,11.07
2018-06-16T22:10:56.289Z,12.17
2018-06-16T22:13:24.784Z,11.27
2018-06-16T22:15:54.399Z,16.70
2018-06-16T22:18:23.015Z,12.23
2018-06-16T22:20:51.454Z,15.63
2018-06-16T22:23:19.992Z,12.53
2018-06-16T22:25:48.683Z,14.60
2018-06-16T22:28:18.577Z,16.73
2018-06-16T22:30:47.219Z,15.40
2018-06-16T22:33:16.069Z,18.53
2018-06-16T22:35:44.826Z,16.33
2018-06-16T22:38:13.410Z,20.37
2018-06-16T22:40:41.935Z,17.77
2018-06-16T22:43:10.386Z,18.13
2018-06-16T22:45:39.052Z,17.57
2018-06-16T22:48:07.540Z,17.87
2018-06-16T22:50:36.152Z,19.87
2018-06-16T22:53:04.816Z,18.77
2018-06-16T22:55:33.371Z,22.60
2018-06-16T22:58:01.882Z,20.00
2018-06-16T23:00:30.362Z,20.57
2018-06-16T23:02:59.354Z,22.80
2018-06-16T23:05:28.053Z,24.23
2018-06-16T23:07:56.658Z,23.40
2018-06-16T23:10:25.470Z,24.93
2018-06-16T23:12:53.948Z,29.53
2018-06-16T23:15:22.451Z,25.23
2018-06-16T23:17:52.748Z,27.97
2018-06-16T23:20:21.463Z,25.87
2018-06-16T23:22:49.879Z,27.80
2018-06-16T23:25:19.148Z,28.63
2018-06-16T23:27:47.519Z,30.30
2018-06-16T23:30:16.514Z,26.73
2018-06-16T23:32:45.431Z,36.80
2018-06-16T23:35:13.966Z,29.07
2018-06-16T23:37:42.486Z,47.03
2018-06-16T23:40:13.986Z,33.13
2018-06-16T23:42:42.841Z,30.10
2018-06-16T23:45:11.315Z,36.67
2018-06-16T23:47:40.559Z,31.97
2018-06-16T23:50:09.139Z,32.83
2018-06-16T23:52:37.629Z,33.30
2018-06-16T23:55:06.964Z,32.83
2018-06-16T23:57:41.479Z,34.63
